sensor_id;sensor_type;location;lat;lon;timestamp;pressure;altitude;pressure_sealevel;temperature;humidity
70158;BME280;57524;48.312;7.938;2022-09-09T00:01:29;98944.81;;;17.14;66.02
70158;BME280;57524;48.312;7.938;2022-09-09T00:04:03;98972.63;;;17.24;65.98
70158;BME280;57524;48.312;7.938;2022-09-09T00:06:33;98961.63;;;17.14;66.27
70158;BME280;57524;48.312;7.938;2022-09-09T00:09:06;98974.69;;;17.19;66.40
70158;BME280;57524;48.312;7.938;2022-09-09T00:11:43;98966.72;;;17.19;66.21
70158;BME280;57524;48.312;7.938;2022-09-09T00:14:18;98967.66;;;17.18;66.16
70158;BME280;57524;48.312;7.938;2022-09-09T00:16:53;98954.09;;;17.07;66.14
70158;BME280;57524;48.312;7.938;2022-09-09T00:19:24;98977.44;;;17.17;65.56
70158;BME280;57524;48.312;7.938;2022-09-09T00:22:03;98955.97;;;17.04;66.37
70158;BME280;57524;48.312;7.938;2022-09-09T00:24:39;98965.84;;;17.02;66.54
70158;BME280;57524;48.312;7.938;2022-09-09T00:27:14;98973.34;;;17.12;66.56
70158;BME280;57524;48.312;7.938;2022-09-09T00:29:44;98982.09;;;17.14;66.95
70158;BME280;57524;48.312;7.938;2022-09-09T00:32:16;98965.59;;;17.07;66.56
70158;BME280;57524;48.312;7.938;2022-09-09T00:34:55;98994.31;;;17.18;66.85
70158;BME280;57524;48.312;7.938;2022-09-09T00:37:48;98966.78;;;17.01;67.00
70158;BME280;57524;48.312;7.938;2022-09-09T00:40:28;98961.38;;;17.03;67.12
70158;BME280;57524;48.312;7.938;2022-09-09T00:43:14;98965.66;;;17.06;66.46
70158;BME280;57524;48.312;7.938;2022-09-09T00:46:21;98952.53;;;17.02;66.74
70158;BME280;57524;48.312;7.938;2022-09-09T00:49:03;98951.84;;;17.15;66.25
70158;BME280;57524;48.312;7.938;2022-09-09T00:51:44;98974.38;;;17.25;65.86
70158;BME280;57524;48.312;7.938;2022-09-09T00:54:39;98975.22;;;17.10;66.19
70158;BME280;57524;48.312;7.938;2022-09-09T00:57:28;98961.91;;;17.10;65.99
70158;BME280;57524;48.312;7.938;2022-09-09T01:00:16;98975.94;;;17.29;65.81
70158;BME280;57524;48.312;7.938;2022-09-09T01:02:53;98989.13;;;17.31;65.50
70158;BME280;57524;48.312;7.938;2022-09-09T01:05:39;98962.50;;;17.15;65.51
70158;BME280;57524;48.312;7.938;2022-09-09T01:11:20;98964.63;;;17.24;64.15
70158;BME280;57524;48.312;7.938;2022-09-09T01:14:38;98976.25;;;17.23;64.61
70158;BME280;57524;48.312;7.938;2022-09-09T01:17:12;98961.63;;;17.30;64.50
70158;BME280;57524;48.312;7.938;2022-09-09T01:19:52;98961.63;;;17.30;64.99
70158;BME280;57524;48.312;7.938;2022-09-09T01:22:34;98946.50;;;17.15;64.06
70158;BME280;57524;48.312;7.938;2022-09-09T01:25:20;98950.31;;;17.11;63.62
70158;BME280;57524;48.312;7.938;2022-09-09T01:28:14;98950.38;;;17.09;63.88
70158;BME280;57524;48.312;7.938;2022-09-09T01:37:34;98979.00;;;17.37;63.90
70158;BME280;57524;48.312;7.938;2022-09-09T01:47:19;98957.19;;;17.47;63.26
70158;BME280;57524;48.312;7.938;2022-09-09T01:50:12;98966.53;;;17.54;63.09
70158;BME280;57524;48.312;7.938;2022-09-09T01:53:01;98940.22;;;17.48;62.92
70158;BME280;57524;48.312;7.938;2022-09-09T01:55:35;98941.53;;;17.40;63.27
70158;BME280;57524;48.312;7.938;2022-09-09T01:58:13;98944.59;;;17.49;63.03
70158;BME280;57524;48.312;7.938;2022-09-09T02:00:55;98949.34;;;17.43;62.77
70158;BME280;57524;48.312;7.938;2022-09-09T02:03:27;98949.94;;;17.49;62.44
70158;BME280;57524;48.312;7.938;2022-09-09T02:06:07;98947.19;;;17.50;62.86
70158;BME280;57524;48.312;7.938;2022-09-09T02:08:39;98958.53;;;17.54;62.84
70158;BME280;57524;48.312;7.938;2022-09-09T02:11:14;98950.53;;;17.54;62.39
70158;BME280;57524;48.312;7.938;2022-09-09T02:13:46;98959.59;;;17.51;62.62
70158;BME280;57524;48.312;7.938;2022-09-09T02:16:19;98948.03;;;17.51;62.90
70158;BME280;57524;48.312;7.938;2022-09-09T02:19:01;98927.78;;;17.32;62.59
70158;BME280;57524;48.312;7.938;2022-09-09T02:22:35;98952.25;;;17.39;63.11
70158;BME280;57524;48.312;7.938;2022-09-09T02:25:08;98945.66;;;17.30;63.57
70158;BME280;57524;48.312;7.938;2022-09-09T02:27:36;98937.06;;;17.25;64.00
70158;BME280;57524;48.312;7.938;2022-09-09T02:30:04;98954.22;;;17.35;63.93
70158;BME280;57524;48.312;7.938;2022-09-09T02:32:50;98945.66;;;17.30;63.86
70158;BME280;57524;48.312;7.938;2022-09-09T02:35:43;98950.31;;;17.27;64.12
70158;BME280;57524;48.312;7.938;2022-09-09T02:38:19;98933.03;;;17.18;64.42
70158;BME280;57524;48.312;7.938;2022-09-09T02:40:55;98952.53;;;17.34;64.15
70158;BME280;57524;48.312;7.938;2022-09-09T02:43:24;98958.72;;;17.35;63.77
70158;BME280;57524;48.312;7.938;2022-09-09T02:45:57;98966.63;;;17.36;64.13
70158;BME280;57524;48.312;7.938;2022-09-09T02:48:38;98948.44;;;17.29;64.11
70158;BME280;57524;48.312;7.938;2022-09-09T02:51:19;98957.28;;;17.29;64.11
70158;BME280;57524;48.312;7.938;2022-09-09T02:53:52;98949.28;;;17.29;64.20
70158;BME280;57524;48.312;7.938;2022-09-09T02:56:25;98942.22;;;17.28;63.82
70158;BME280;57524;48.312;7.938;2022-09-09T02:58:54;98947.19;;;17.34;63.88
70158;BME280;57524;48.312;7.938;2022-09-09T03:01:22;98958.72;;;17.35;63.95
70158;BME280;57524;48.312;7.938;2022-09-09T03:03:49;98945.66;;;17.30;63.99
70158;BME280;57524;48.312;7.938;2022-09-09T03:06:18;98963.00;;;17.37;63.69
70158;BME280;57524;48.312;7.938;2022-09-09T03:08:50;98942.41;;;17.25;63.74
70158;BME280;57524;48.312;7.938;2022-09-09T03:11:22;98961.50;;;17.33;64.14
70158;BME280;57524;48.312;7.938;2022-09-09T03:13:49;98947.53;;;17.28;63.86
70158;BME280;57524;48.312;7.938;2022-09-09T03:16:16;98950.19;;;17.28;63.77
70158;BME280;57524;48.312;7.938;2022-09-09T03:18:47;98944.97;;;17.27;63.61
70158;BME280;57524;48.312;7.938;2022-09-09T03:21:14;98953.81;;;17.27;63.77
70158;BME280;57524;48.312;7.938;2022-09-09T03:23:43;98949.63;;;17.23;64.11
70158;BME280;57524;48.312;7.938;2022-09-09T03:26:10;98940.50;;;17.27;63.60
70158;BME280;57524;48.312;7.938;2022-09-09T03:28:42;98934.59;;;17.22;63.84
70158;BME280;57524;48.312;7.938;2022-09-09T03:31:11;98943.84;;;17.31;63.62
70158;BME280;57524;48.312;7.938;2022-09-09T03:33:40;98939.97;;;17.36;63.79
70158;BME280;57524;48.312;7.938;2022-09-09T03:36:10;98926.06;;;17.31;63.58
70158;BME280;57524;48.312;7.938;2022-09-09T03:38:48;98945.13;;;17.39;63.91
70158;BME280;57524;48.312;7.938;2022-09-09T03:41:16;98928.81;;;17.30;63.64
70158;BME280;57524;48.312;7.938;2022-09-09T03:43:44;98940.31;;;17.30;63.46
70158;BME280;57524;48.312;7.938;2022-09-09T03:46:13;98923.50;;;17.14;63.95
70158;BME280;57524;48.312;7.938;2022-09-09T03:48:45;98944.28;;;17.23;63.83
70158;BME280;57524;48.312;7.938;2022-09-09T03:51:12;98942.72;;;17.19;63.95
70158;BME280;57524;48.312;7.938;2022-09-09T03:53:40;98946.00;;;17.24;63.75
70158;BME280;57524;48.312;7.938;2022-09-09T03:56:10;98947.72;;;17.25;63.41
70158;BME280;57524;48.312;7.938;2022-09-09T03:58:37;98932.06;;;17.19;63.24
70158;BME280;57524;48.312;7.938;2022-09-09T04:01:08;98925.03;;;17.18;63.08
70158;BME280;57524;48.312;7.938;2022-09-09T04:03:36;98935.34;;;17.24;63.81
70158;BME280;57524;48.312;7.938;2022-09-09T04:06:04;98930.72;;;17.12;63.82
70158;BME280;57524;48.312;7.938;2022-09-09T04:08:32;98932.59;;;17.10;64.33
70158;BME280;57524;48.312;7.938;2022-09-09T04:11:01;98944.03;;;17.12;64.04
70158;BME280;57524;48.312;7.938;2022-09-09T04:13:34;98939.81;;;17.08;64.46
70158;BME280;57524;48.312;7.938;2022-09-09T04:16:02;98939.81;;;17.08;65.00
70158;BME280;57524;48.312;7.938;2022-09-09T04:18:33;98932.78;;;17.07;64.85
70158;BME280;57524;48.312;7.938;2022-09-09T04:21:00;98940.00;;;17.04;65.33
70158;BME280;57524;48.312;7.938;2022-09-09T04:23:29;98940.31;;;16.98;64.68
70158;BME280;57524;48.312;7.938;2022-09-09T04:25:58;98943.94;;;16.97;64.99
70158;BME280;57524;48.312;7.938;2022-09-09T04:28:27;98944.44;;;16.88;65.64
70158;BME280;57524;48.312;7.938;2022-09-09T04:30:56;98949.75;;;16.88;64.85
70158;BME280;57524;48.312;7.938;2022-09-09T04:33:24;98948.38;;;16.81;65.53
70158;BME280;57524;48.312;7.938;2022-09-09T04:35:52;98953.69;;;16.81;65.95
70158;BME280;57524;48.312;7.938;2022-09-09T04:38:23;98955.44;;;16.82;65.35
70158;BME280;57524;48.312;7.938;2022-09-09T04:40:50;98954.03;;;16.75;65.48
70158;BME280;57524;48.312;7.938;2022-09-09T04:43:19;98956.47;;;16.79;65.20
70158;BME280;57524;48.312;7.938;2022-09-09T04:45:48;98955.44;;;16.82;64.71
70158;BME280;57524;48.312;7.938;2022-09-09T04:48:19;98948.69;;;16.75;65.55
70158;BME280;57524;48.312;7.938;2022-09-09T04:50:55;98940.25;;;16.67;65.20
70158;BME280;57524;48.312;7.938;2022-09-09T04:53:22;98962.09;;;16.73;65.18
70158;BME280;57524;48.312;7.938;2022-09-09T04:55:51;98962.34;;;16.69;66.08
70158;BME280;57524;48.312;7.938;2022-09-09T04:58:18;98968.59;;;16.68;66.33
70158;BME280;57524;48.312;7.938;2022-09-09T05:00:47;98965.25;;;16.64;65.82
70158;BME280;57524;48.312;7.938;2022-09-09T05:03:14;98967.91;;;16.64;65.87
70158;BME280;57524;48.312;7.938;2022-09-09T05:05:42;98968.75;;;16.65;66.50
70158;BME280;57524;48.312;7.938;2022-09-09T05:08:10;98969.06;;;16.58;66.35
70158;BME280;57524;48.312;7.938;2022-09-09T05:10:38;98970.97;;;16.56;66.85
70158;BME280;57524;48.312;7.938;2022-09-09T05:13:07;98976.28;;;16.56;66.77
70158;BME280;57524;48.312;7.938;2022-09-09T05:15:34;98978.16;;;16.54;66.91
70158;BME280;57524;48.312;7.938;2022-09-09T05:18:02;98967.63;;;16.53;66.58
70158;BME280;57524;48.312;7.938;2022-09-09T05:20:31;98969.06;;;16.58;66.84
70158;BME280;57524;48.312;7.938;2022-09-09T05:23:00;98962.97;;;16.56;67.37
70158;BME280;57524;48.312;7.938;2022-09-09T05:25:28;98963.75;;;16.58;66.42
70158;BME280;57524;48.312;7.938;2022-09-09T05:27:55;98968.94;;;16.61;66.23
70158;BME280;57524;48.312;7.938;2022-09-09T05:30:22;98965.50;;;16.59;66.45
70158;BME280;57524;48.312;7.938;2022-09-09T05:32:52;98967.38;;;16.57;67.13
70158;BME280;57524;48.312;7.938;2022-09-09T05:35:18;98964.59;;;16.59;66.66
70158;BME280;57524;48.312;7.938;2022-09-09T05:37:46;98971.66;;;16.60;67.31
70158;BME280;57524;48.312;7.938;2022-09-09T05:40:14;98973.31;;;16.62;67.36
70158;BME280;57524;48.312;7.938;2022-09-09T05:42:41;98980.44;;;16.62;67.27
70158;BME280;57524;48.312;7.938;2022-09-09T05:45:09;98982.91;;;16.65;67.08
70158;BME280;57524;48.312;7.938;2022-09-09T05:47:37;98986.28;;;16.69;67.29
70158;BME280;57524;48.312;7.938;2022-09-09T05:50:07;98980.78;;;16.72;67.30
70158;BME280;57524;48.312;7.938;2022-09-09T05:52:34;98988.00;;;16.70;67.25
70158;BME280;57524;48.312;7.938;2022-09-09T05:55:01;98982.53;;;16.73;66.88
70158;BME280;57524;48.312;7.938;2022-09-09T05:57:31;98980.66;;;16.75;67.42
70158;BME280;57524;48.312;7.938;2022-09-09T05:59:57;98987.50;;;16.79;67.46
70158;BME280;57524;48.312;7.938;2022-09-09T06:02:24;98978.63;;;16.80;67.42
70158;BME280;57524;48.312;7.938;2022-09-09T06:04:51;98985.50;;;16.84;66.88
70158;BME280;57524;48.312;7.938;2022-09-09T06:07:18;98983.78;;;16.83;67.25
70158;BME280;57524;48.312;7.938;2022-09-09T06:09:45;98980.00;;;16.87;66.74
70158;BME280;57524;48.312;7.938;2022-09-09T06:12:12;98981.56;;;16.91;66.57
70158;BME280;57524;48.312;7.938;2022-09-09T06:14:41;98976.06;;;16.94;66.97
70158;BME280;57524;48.312;7.938;2022-09-09T06:17:07;98983.13;;;16.95;66.78
70158;BME280;57524;48.312;7.938;2022-09-09T06:19:35;98986.56;;;16.97;67.21
70158;BME280;57524;48.312;7.938;2022-09-09T06:22:02;98982.75;;;17.01;67.38
70158;BME280;57524;48.312;7.938;2022-09-09T06:24:31;98985.28;;;17.04;66.47
70158;BME280;57524;48.312;7.938;2022-09-09T06:27:00;98979.00;;;17.06;66.82
70158;BME280;57524;48.312;7.938;2022-09-09T06:29:30;98982.34;;;17.09;66.70
70158;BME280;57524;48.312;7.938;2022-09-09T06:31:58;98977.81;;;17.11;66.53
70158;BME280;57524;48.312;7.938;2022-09-09T06:34:26;98978.47;;;17.15;66.61
70158;BME280;57524;48.312;7.938;2022-09-09T06:36:55;98983.66;;;17.18;66.74
70158;BME280;57524;48.312;7.938;2022-09-09T06:39:24;98985.22;;;17.22;67.26
70158;BME280;57524;48.312;7.938;2022-09-09T06:41:51;98988.47;;;17.27;66.92
70158;BME280;57524;48.312;7.938;2022-09-09T06:44:38;98982.97;;;17.30;66.90
70158;BME280;57524;48.312;7.938;2022-09-09T06:47:10;98979.00;;;17.37;66.61
70158;BME280;57524;48.312;7.938;2022-09-09T06:49:38;98984.84;;;17.44;67.19
70158;BME280;57524;48.312;7.938;2022-09-09T06:52:08;98981.75;;;17.52;66.58
70158;BME280;57524;48.312;7.938;2022-09-09T06:54:34;98983.13;;;17.59;66.71
70158;BME280;57524;48.312;7.938;2022-09-09T06:57:03;98979.16;;;17.66;66.04
70158;BME280;57524;48.312;7.938;2022-09-09T06:59:32;98989.47;;;17.72;66.64
70158;BME280;57524;48.312;7.938;2022-09-09T07:01:59;98997.19;;;17.77;66.73
70158;BME280;57524;48.312;7.938;2022-09-09T07:04:29;99000.50;;;17.82;65.76
70158;BME280;57524;48.312;7.938;2022-09-09T07:06:56;98999.44;;;17.84;65.43
70158;BME280;57524;48.312;7.938;2022-09-09T07:09:24;99002.53;;;17.93;64.13
70158;BME280;57524;48.312;7.938;2022-09-09T07:11:53;99003.88;;;18.00;63.81
70158;BME280;57524;48.312;7.938;2022-09-09T07:14:21;99003.34;;;18.09;63.64
70158;BME280;57524;48.312;7.938;2022-09-09T07:16:53;98999.56;;;18.13;63.49
70158;BME280;57524;48.312;7.938;2022-09-09T07:19:20;99007.00;;;18.22;63.24
70158;BME280;57524;48.312;7.938;2022-09-09T07:21:51;99007.78;;;18.24;62.58
70158;BME280;57524;48.312;7.938;2022-09-09T07:24:21;98995.56;;;18.20;62.81
70158;BME280;57524;48.312;7.938;2022-09-09T07:26:48;99000.75;;;18.23;62.80
70158;BME280;57524;48.312;7.938;2022-09-09T07:29:14;99002.44;;;18.24;62.65
70158;BME280;57524;48.312;7.938;2022-09-09T07:31:41;99003.13;;;18.28;62.62
70158;BME280;57524;48.312;7.938;2022-09-09T07:34:13;99002.94;;;18.31;62.28
70158;BME280;57524;48.312;7.938;2022-09-09T07:36:40;99002.94;;;18.31;62.44
70158;BME280;57524;48.312;7.938;2022-09-09T07:39:12;99014.31;;;18.35;62.15
70158;BME280;57524;48.312;7.938;2022-09-09T07:41:43;99002.88;;;18.47;61.89
70158;BME280;57524;48.312;7.938;2022-09-09T07:44:14;99005.75;;;18.58;61.55
70158;BME280;57524;48.312;7.938;2022-09-09T07:46:43;99013.47;;;18.63;61.56
70158;BME280;57524;48.312;7.938;2022-09-09T07:49:11;99008.44;;;18.73;60.98
70158;BME280;57524;48.312;7.938;2022-09-09T07:51:40;98995.50;;;18.81;60.97
70158;BME280;57524;48.312;7.938;2022-09-09T07:54:09;98998.56;;;18.89;60.17
70158;BME280;57524;48.312;7.938;2022-09-09T07:56:40;98994.75;;;18.93;60.23
70158;BME280;57524;48.312;7.938;2022-09-09T07:59:08;99015.44;;;19.04;59.87
70158;BME280;57524;48.312;7.938;2022-09-09T08:01:38;99007.63;;;19.15;59.56
70158;BME280;57524;48.312;7.938;2022-09-09T08:04:08;99014.19;;;19.24;59.23
70158;BME280;57524;48.312;7.938;2022-09-09T08:06:37;99004.81;;;19.31;59.33
70158;BME280;57524;48.312;7.938;2022-09-09T08:09:07;99004.34;;;19.24;59.44
70158;BME280;57524;48.312;7.938;2022-09-09T08:11:35;99011.50;;;19.38;58.84
70158;BME280;57524;48.312;7.938;2022-09-09T08:14:04;99016.25;;;19.47;58.33
70158;BME280;57524;48.312;7.938;2022-09-09T08:16:32;99013.94;;;19.56;57.63
70158;BME280;57524;48.312;7.938;2022-09-09T08:19:03;99004.75;;;19.60;57.87
70158;BME280;57524;48.312;7.938;2022-09-09T08:21:31;99013.91;;;19.70;56.93
70158;BME280;57524;48.312;7.938;2022-09-09T08:24:00;99016.00;;;19.79;56.13
70158;BME280;57524;48.312;7.938;2022-09-09T08:26:29;99028.97;;;19.85;56.02
70158;BME280;57524;48.312;7.938;2022-09-09T08:28:57;99015.19;;;19.91;56.44
70158;BME280;57524;48.312;7.938;2022-09-09T08:31:28;99023.56;;;20.00;56.05
70158;BME280;57524;48.312;7.938;2022-09-09T08:33:57;99017.41;;;20.12;56.32
70158;BME280;57524;48.312;7.938;2022-09-09T08:36:27;99003.47;;;20.07;55.96
70158;BME280;57524;48.312;7.938;2022-09-09T08:38:55;99007.13;;;20.19;55.39
70158;BME280;57524;48.312;7.938;2022-09-09T08:41:33;99003.91;;;20.26;54.84
70158;BME280;57524;48.312;7.938;2022-09-09T08:44:05;98994.94;;;20.27;54.23
70158;BME280;57524;48.312;7.938;2022-09-09T08:46:41;99019.34;;;20.35;53.19
70158;BME280;57524;48.312;7.938;2022-09-09T08:49:18;98992.56;;;20.35;53.69
70158;BME280;57524;48.312;7.938;2022-09-09T08:51:48;98996.44;;;20.31;53.87
70158;BME280;57524;48.312;7.938;2022-09-09T08:54:16;99000.06;;;20.30;52.67
70158;BME280;57524;48.312;7.938;2022-09-09T08:56:44;98997.19;;;20.33;52.67
70158;BME280;57524;48.312;7.938;2022-09-09T08:59:14;99000.50;;;20.37;53.33
70158;BME280;57524;48.312;7.938;2022-09-09T09:02:00;99003.41;;;20.34;53.58
70158;BME280;57524;48.312;7.938;2022-09-09T09:04:51;98984.47;;;20.50;53.37
70158;BME280;57524;48.312;7.938;2022-09-09T09:07:31;98994.44;;;20.48;53.75
70158;BME280;57524;48.312;7.938;2022-09-09T09:10:11;98992.84;;;20.58;52.80
70158;BME280;57524;48.312;7.938;2022-09-09T09:12:44;98966.25;;;20.55;51.85
70158;BME280;57524;48.312;7.938;2022-09-09T09:15:18;98980.50;;;20.55;51.83
70158;BME280;57524;48.312;7.938;2022-09-09T09:17:50;98985.97;;;20.54;51.46
70158;BME280;57524;48.312;7.938;2022-09-09T09:20:22;98991.53;;;20.51;51.86
70158;BME280;57524;48.312;7.938;2022-09-09T09:22:53;98990.66;;;20.38;53.32
70158;BME280;57524;48.312;7.938;2022-09-09T09:25:23;98989.78;;;20.24;53.96
70158;BME280;57524;48.312;7.938;2022-09-09T09:27:57;99007.03;;;20.20;54.77
70158;BME280;57524;48.312;7.938;2022-09-09T09:30:30;99019.31;;;20.10;55.80
70158;BME280;57524;48.312;7.938;2022-09-09T09:33:12;99069.47;;;19.93;57.47
70158;BME280;57524;48.312;7.938;2022-09-09T09:35:41;99082.34;;;19.45;56.79
70158;BME280;57524;48.312;7.938;2022-09-09T09:38:16;99080.34;;;19.20;57.59
70158;BME280;57524;48.312;7.938;2022-09-09T09:40:51;99104.84;;;18.98;59.54
70158;BME280;57524;48.312;7.938;2022-09-09T09:43:26;99097.19;;;18.78;61.06
70158;BME280;57524;48.312;7.938;2022-09-09T09:45:53;99086.34;;;18.65;62.35
70158;BME280;57524;48.312;7.938;2022-09-09T09:48:22;99091.41;;;18.55;63.82
70158;BME280;57524;48.312;7.938;2022-09-09T09:50:51;99112.25;;;18.48;64.60
70158;BME280;57524;48.312;7.938;2022-09-09T09:53:24;99120.53;;;18.44;64.87
70158;BME280;57524;48.312;7.938;2022-09-09T09:55:56;99095.94;;;18.39;64.86
70158;BME280;57524;48.312;7.938;2022-09-09T09:58:25;99079.63;;;18.43;65.09
70158;BME280;57524;48.312;7.938;2022-09-09T10:00:53;99081.25;;;18.46;64.54
70158;BME280;57524;48.312;7.938;2022-09-09T10:03:28;99074.41;;;18.56;64.44
70158;BME280;57524;48.312;7.938;2022-09-09T10:05:57;99074.03;;;18.62;64.02
70158;BME280;57524;48.312;7.938;2022-09-09T10:08:25;99070.31;;;18.65;65.52
70158;BME280;57524;48.312;7.938;2022-09-09T10:11:13;99071.78;;;18.70;66.75
70158;BME280;57524;48.312;7.938;2022-09-09T10:13:48;99067.00;;;18.76;66.95
70158;BME280;57524;48.312;7.938;2022-09-09T10:16:32;99070.13;;;18.84;66.25
70158;BME280;57524;48.312;7.938;2022-09-09T10:19:09;99062.09;;;18.98;66.26
70158;BME280;57524;48.312;7.938;2022-09-09T10:21:57;99066.03;;;19.07;65.78
70158;BME280;57524;48.312;7.938;2022-09-09T10:24:48;99058.56;;;19.12;64.53
70158;BME280;57524;48.312;7.938;2022-09-09T10:27:25;99057.50;;;19.15;64.20
70158;BME280;57524;48.312;7.938;2022-09-09T10:30:03;99056.97;;;19.24;64.76
70158;BME280;57524;48.312;7.938;2022-09-09T10:32:40;99044.16;;;19.29;62.94
70158;BME280;57524;48.312;7.938;2022-09-09T10:35:21;99042.03;;;19.34;63.47
70158;BME280;57524;48.312;7.938;2022-09-09T10:40:44;99044.91;;;19.17;65.10
70158;BME280;57524;48.312;7.938;2022-09-09T10:43:33;99032.53;;;19.16;64.53
70158;BME280;57524;48.312;7.938;2022-09-09T10:46:10;99033.66;;;19.26;64.44
70158;BME280;57524;48.312;7.938;2022-09-09T10:48:53;99034.78;;;19.36;64.35
70158;BME280;57524;48.312;7.938;2022-09-09T10:51:33;99030.41;;;19.35;64.59
70158;BME280;57524;48.312;7.938;2022-09-09T10:54:16;99034.59;;;19.39;64.14
70158;BME280;57524;48.312;7.938;2022-09-09T10:56:51;99032.66;;;19.56;64.12
70158;BME280;57524;48.312;7.938;2022-09-09T10:59:20;99038.34;;;19.64;64.22
70158;BME280;57524;48.312;7.938;2022-09-09T11:01:51;99046.03;;;19.70;64.15
70158;BME280;57524;48.312;7.938;2022-09-09T11:04:22;99040.59;;;19.71;64.42
70158;BME280;57524;48.312;7.938;2022-09-09T11:06:54;99043.41;;;19.68;64.34
70158;BME280;57524;48.312;7.938;2022-09-09T11:09:23;99039.88;;;19.68;64.70
70158;BME280;57524;48.312;7.938;2022-09-09T11:11:53;99043.34;;;19.70;64.45
70158;BME280;57524;48.312;7.938;2022-09-09T11:14:24;99055.56;;;19.74;64.61
70158;BME280;57524;48.312;7.938;2022-09-09T11:16:56;99039.31;;;19.77;65.18
70158;BME280;57524;48.312;7.938;2022-09-09T11:19:28;99040.28;;;20.03;63.86
70158;BME280;57524;48.312;7.938;2022-09-09T11:21:59;99035.41;;;20.23;64.97
70158;BME280;57524;48.312;7.938;2022-09-09T11:24:31;99020.03;;;20.39;65.48
70158;BME280;57524;48.312;7.938;2022-09-09T11:27:02;99024.78;;;20.61;64.27
70158;BME280;57524;48.312;7.938;2022-09-09T11:30:02;99022.97;;;20.74;62.48
70158;BME280;57524;48.312;7.938;2022-09-09T11:35:37;99018.16;;;20.80;60.77
70158;BME280;57524;48.312;7.938;2022-09-09T11:38:18;99019.13;;;20.79;58.69
70158;BME280;57524;48.312;7.938;2022-09-09T11:40:45;99020.06;;;20.77;58.70
70158;BME280;57524;48.312;7.938;2022-09-09T11:43:15;99020.06;;;20.77;58.06
70158;BME280;57524;48.312;7.938;2022-09-09T11:45:50;99027.38;;;20.75;56.56
70158;BME280;57524;48.312;7.938;2022-09-09T11:48:28;99031.66;;;20.91;56.06
70158;BME280;57524;48.312;7.938;2022-09-09T11:51:02;99029.72;;;20.93;54.78
70158;BME280;57524;48.312;7.938;2022-09-09T11:53:32;99032.69;;;21.14;55.08
70158;BME280;57524;48.312;7.938;2022-09-09T11:56:07;99038.47;;;21.21;54.29
70158;BME280;57524;48.312;7.938;2022-09-09T11:58:40;99031.19;;;21.23;53.14
70158;BME280;57524;48.312;7.938;2022-09-09T12:01:28;99030.09;;;21.38;51.90
70158;BME280;57524;48.312;7.938;2022-09-09T12:04:11;99027.50;;;21.49;51.46
70158;BME280;57524;48.312;7.938;2022-09-09T12:06:44;99034.88;;;21.58;50.70
70158;BME280;57524;48.312;7.938;2022-09-09T12:09:23;99034.38;;;21.53;50.88
70158;BME280;57524;48.312;7.938;2022-09-09T12:11:51;99020.38;;;21.61;50.63
70158;BME280;57524;48.312;7.938;2022-09-09T12:14:23;99025.81;;;21.48;51.11
70158;BME280;57524;48.312;7.938;2022-09-09T12:17:09;99021.09;;;21.39;52.43
70158;BME280;57524;48.312;7.938;2022-09-09T12:19:36;99023.88;;;21.50;52.58
70158;BME280;57524;48.312;7.938;2022-09-09T12:22:07;99015.59;;;21.53;52.55
70158;BME280;57524;48.312;7.938;2022-09-09T12:24:47;99008.00;;;21.47;52.92
70158;BME280;57524;48.312;7.938;2022-09-09T12:27:20;99008.63;;;21.38;52.23
70158;BME280;57524;48.312;7.938;2022-09-09T12:29:55;99014.56;;;21.30;52.39
70158;BME280;57524;48.312;7.938;2022-09-09T12:32:25;99004.16;;;21.26;52.23
70158;BME280;57524;48.312;7.938;2022-09-09T12:34:57;99000.28;;;21.30;53.72
70158;BME280;57524;48.312;7.938;2022-09-09T12:37:29;99009.19;;;21.43;53.72
70158;BME280;57524;48.312;7.938;2022-09-09T12:40:01;99006.22;;;21.59;53.66
70158;BME280;57524;48.312;7.938;2022-09-09T12:42:29;99011.50;;;21.85;53.56
70158;BME280;57524;48.312;7.938;2022-09-09T12:44:59;99008.81;;;22.09;52.82
70158;BME280;57524;48.312;7.938;2022-09-09T12:47:32;98995.72;;;22.28;51.31
70158;BME280;57524;48.312;7.938;2022-09-09T12:50:03;98992.13;;;22.52;50.31
70158;BME280;57524;48.312;7.938;2022-09-09T12:52:32;98982.88;;;22.67;49.03
70158;BME280;57524;48.312;7.938;2022-09-09T12:55:04;98978.25;;;22.80;48.76
70158;BME280;57524;48.312;7.938;2022-09-09T12:57:33;98969.47;;;23.01;48.13
70158;BME280;57524;48.312;7.938;2022-09-09T13:00:06;98979.38;;;23.23;45.53
70158;BME280;57524;48.312;7.938;2022-09-09T13:02:35;98962.56;;;23.42;44.97
70158;BME280;57524;48.312;7.938;2022-09-09T13:05:15;98964.38;;;23.53;44.06
70158;BME280;57524;48.312;7.938;2022-09-09T13:07:42;98968.59;;;23.23;45.09
70158;BME280;57524;48.312;7.938;2022-09-09T13:10:12;98962.09;;;23.37;45.27
70158;BME280;57524;48.312;7.938;2022-09-09T13:12:40;98963.53;;;23.52;45.70
70158;BME280;57524;48.312;7.938;2022-09-09T13:15:14;98946.91;;;23.36;46.72
70158;BME280;57524;48.312;7.938;2022-09-09T13:17:50;98944.59;;;23.31;45.87
70158;BME280;57524;48.312;7.938;2022-09-09T13:20:19;98938.59;;;23.50;45.66
70158;BME280;57524;48.312;7.938;2022-09-09T13:22:47;98934.50;;;23.56;46.15
70158;BME280;57524;48.312;7.938;2022-09-09T13:25:22;98933.22;;;23.50;45.11
70158;BME280;57524;48.312;7.938;2022-09-09T13:27:54;98936.78;;;23.72;44.24
70158;BME280;57524;48.312;7.938;2022-09-09T13:30:23;98931.19;;;23.75;42.79
70158;BME280;57524;48.312;7.938;2022-09-09T13:33:00;98942.78;;;24.07;41.23
70158;BME280;57524;48.312;7.938;2022-09-09T13:35:28;98942.59;;;24.20;39.32
70158;BME280;57524;48.312;7.938;2022-09-09T13:37:54;98934.78;;;24.38;38.21
70158;BME280;57524;48.312;7.938;2022-09-09T13:40:23;98952.75;;;24.49;38.19
70158;BME280;57524;48.312;7.938;2022-09-09T13:42:52;98952.75;;;24.49;38.80
70158;BME280;57524;48.312;7.938;2022-09-09T13:45:23;98937.94;;;24.64;37.88
70158;BME280;57524;48.312;7.938;2022-09-09T13:47:52;98933.03;;;24.79;38.88
70158;BME280;57524;48.312;7.938;2022-09-09T13:50:22;98938.41;;;24.79;38.06
70158;BME280;57524;48.312;7.938;2022-09-09T13:52:49;98934.00;;;24.47;38.95